Aérodrome :
LOGIN :

S'inscrire | Disclaimer

   EN    FR    IT 

 










Légende :    VFR   VFR Marginal   IFR   IFR Intensif   IFR Très Intensif
Visi : 
Plafond : 
>= 8 km
>= 3000ft
5 à 8 km
1000 à 3000 ft
1500m à 5 km
500 à 1000 ft
800 à 1500m
200 à 500 ft
< 800m
< 200 ft
Symboles :   Orages  Brouillard  Fortes neiges  Fortes précipitations  Vent > 20 kt
SIGMETs :   Divers  Orages  Givrage  Turbulence  Onde Orograph.  Cendres Volcan.






- Altitude de l'aérodrome : 636 ft


LPBJ - Beja Air Base

DERNIER METAR :
  • 151428Z 20011KT 7000 3100NW -SHRA FEW010 BKN014 OVC027 14/13 Q1012

METARs EXPIRÉS :
  • 151406Z 19009KT 4100 -SHRA FEW010 BKN020 OVC030 14/12 Q1013
  • 151400Z 19011KT 9999 -SHRA FEW010 SCT020 OVC035 14/13 Q1013
  • 151300Z 20012KT 9999 FEW015 SCT018 OVC040 15/12 Q1014
  • 151200Z 19010KT 9999 SCT015 BKN017 BKN037 15/12 Q1015

TAF TAF LPBJ
Valide du 15 à 12h jusqu'au 16 à 12h UTC


151104Z 1512/1612 19012KT 9999 FEW025 BKN035
BECMG 1516/1518 SCT015 BKN020
TEMPO 1516/1610 19012G22KT 5000 -RADZ SCT010 BKN014
PROB40
TEMPO 1520/1609 1200 RADZ BR SCT004 BKN006
BECMG 1610/1612 29012KT SCT020 SCT025
TEMPO 1610/1612 3000 SHRA SCT008 BKN012



MET'MAP, la Météo Aéronautique d'un coup d'oeil ! - Copyright ORBIFLY Décembre 2007 - Disclaimer

ORBIFLY MET'MAP TEAM :

Programmation & Développement : Alexandra Zaïnal
Sur une idée originale de : Baudouin d'Aumeries
Assistance à la programmation : Marc-Olivier Méhu
Soutien technique & logistique : Manuel Goepfert

Contact : metmap@orbifly.com




SOURCES & CREDITS :

   NOAA